Time;durP1;ratioP1;P1;durP2;ratioP2;P2;SDS_P1;SDS_P2;PMS_P1;PMS_P2;Temp;Humidity;BMP_temperature;BMP_pressure;BME280_temperature;BME280_humidity;BME280_pressure;Samples;Min_cycle;Max_cycle;Signal;HPM_P1;HPM_P2
2023/09/18 00:00:49;;;;;;;6.67;6.13;;;17.90;99.90;;;;;;5093906;28;20242;-80
2023/09/18 00:03:18;;;;;;;6.67;6.17;;;17.90;99.90;;;;;;5082929;28;20522;-79
2023/09/18 00:05:45;;;;;;;7.27;6.67;;;18.00;99.90;;;;;;5075305;28;20232;-78
2023/09/18 00:08:10;;;;;;;6.50;5.90;;;17.90;99.90;;;;;;5078667;28;20182;-80
2023/09/18 00:10:37;;;;;;;6.70;6.20;;;18.00;99.90;;;;;;5070178;28;20214;-78
2023/09/18 00:13:03;;;;;;;6.60;6.10;;;17.90;99.90;;;;;;5080636;28;20178;-78
2023/09/18 00:15:29;;;;;;;6.73;6.20;;;17.90;99.90;;;;;;5078487;28;20175;-80
2023/09/18 00:17:55;;;;;;;6.33;5.83;;;17.90;99.90;;;;;;5084815;28;20175;-78
2023/09/18 00:20:26;;;;;;;6.50;5.90;;;17.80;99.90;;;;;;5075671;28;20178;-79
2023/09/18 00:22:55;;;;;;;6.77;6.20;;;17.80;99.90;;;;;;5057486;28;20577;-79
2023/09/18 00:25:24;;;;;;;6.23;5.63;;;17.80;99.90;;;;;;5075011;28;20171;-79
2023/09/18 00:27:51;;;;;;;6.77;6.27;;;17.80;99.90;;;;;;5084762;28;20167;-79
2023/09/18 00:30:17;;;;;;;6.27;5.83;;;17.70;99.90;;;;;;5075290;28;20199;-78
2023/09/18 00:32:43;;;;;;;6.47;5.73;;;17.70;99.90;;;;;;5057751;28;20184;-78
2023/09/18 00:35:09;;;;;;;6.40;5.97;;;17.70;99.90;;;;;;5056888;28;20240;-80
2023/09/18 00:37:36;;;;;;;6.80;6.20;;;17.70;99.90;;;;;;5080791;28;20190;-78
2023/09/18 00:40:04;;;;;;;7.47;6.77;;;17.70;99.90;;;;;;5092656;28;20323;-78
2023/09/18 00:42:30;;;;;;;6.93;6.27;;;17.70;99.90;;;;;;5075366;28;20198;-78
2023/09/18 00:44:56;;;;;;;6.40;5.90;;;17.70;99.90;;;;;;5074754;28;20220;-78
2023/09/18 00:47:22;;;;;;;6.70;6.10;;;17.70;99.90;;;;;;5074749;28;20167;-79
2023/09/18 00:49:49;;;;;;;7.07;6.40;;;17.70;99.90;;;;;;5074968;28;20301;-79
2023/09/18 00:52:17;;;;;;;6.60;6.00;;;17.70;99.90;;;;;;5074729;28;20197;-79
2023/09/18 00:54:44;;;;;;;6.80;6.10;;;17.70;99.90;;;;;;5074617;28;20567;-79
2023/09/18 00:57:10;;;;;;;6.57;6.10;;;17.70;99.90;;;;;;5074551;28;20626;-79
2023/09/18 00:59:37;;;;;;;6.57;6.07;;;17.70;99.90;;;;;;5074633;28;20203;-79
2023/09/18 01:02:03;;;;;;;7.53;6.57;;;17.70;99.90;;;;;;5074437;28;20179;-78
2023/09/18 01:04:32;;;;;;;7.60;6.13;;;17.80;99.90;;;;;;5073553;28;20175;-78
2023/09/18 01:07:01;;;;;;;6.73;6.13;;;17.80;99.90;;;;;;5074091;28;20175;-79
2023/09/18 01:09:26;;;;;;;7.20;6.00;;;17.70;99.90;;;;;;5073926;28;20316;-77
2023/09/18 01:12:08;;;;;;;6.80;6.30;;;17.70;99.90;;;;;;5074282;28;20718;-78
2023/09/18 01:14:41;;;;;;;6.80;6.30;;;17.70;99.90;;;;;;5074668;28;20645;-79
2023/09/18 01:17:10;;;;;;;6.43;5.83;;;17.70;99.90;;;;;;5074617;28;20163;-79
2023/09/18 01:19:39;;;;;;;7.00;6.30;;;17.70;99.90;;;;;;5074291;28;20164;-79
2023/09/18 01:22:06;;;;;;;6.93;6.33;;;17.60;99.90;;;;;;5074470;28;20198;-78
2023/09/18 01:24:33;;;;;;;6.73;6.07;;;17.60;99.90;;;;;;5074661;28;20255;-79
2023/09/18 01:26:59;;;;;;;6.77;5.97;;;17.60;99.90;;;;;;5074074;28;20168;-77
2023/09/18 01:29:25;;;;;;;7.20;6.47;;;17.60;99.90;;;;;;5073409;28;20177;-80
2023/09/18 01:31:51;;;;;;;7.63;6.93;;;17.60;99.90;;;;;;5074202;28;20178;-80
2023/09/18 01:34:21;;;;;;;6.70;6.20;;;17.60;99.90;;;;;;5076592;28;20208;-78
2023/09/18 01:36:47;;;;;;;6.57;6.03;;;17.50;99.90;;;;;;5083099;28;20214;-79
2023/09/18 01:39:14;;;;;;;6.67;5.97;;;17.60;99.90;;;;;;5084506;28;20250;-79
2023/09/18 01:41:41;;;;;;;6.87;6.37;;;17.60;99.90;;;;;;5079432;28;20167;-81
2023/09/18 01:44:07;;;;;;;6.67;6.17;;;17.50;99.90;;;;;;5079025;28;20463;-79
2023/09/18 01:46:37;;;;;;;6.83;6.30;;;17.50;99.90;;;;;;5075242;28;20178;-78
2023/09/18 01:49:05;;;;;;;8.47;6.10;;;17.50;99.90;;;;;;5056109;28;20582;-80
2023/09/18 01:51:31;;;;;;;7.20;6.60;;;17.50;99.90;;;;;;5079414;28;20210;-79
2023/09/18 01:53:57;;;;;;;6.87;6.37;;;17.50;99.90;;;;;;5093493;28;20170;-77
2023/09/18 01:56:24;;;;;;;7.63;6.37;;;17.40;99.90;;;;;;5067426;28;20300;-78
2023/09/18 01:58:50;;;;;;;6.80;6.27;;;17.40;99.90;;;;;;5074139;28;20229;-77
2023/09/18 02:01:15;;;;;;;7.07;6.47;;;17.50;99.90;;;;;;5075213;28;20186;-79
2023/09/18 02:03:41;;;;;;;6.63;6.13;;;17.40;99.90;;;;;;5080741;28;20181;-79
2023/09/18 02:06:11;;;;;;;6.57;6.07;;;17.40;99.90;;;;;;5085962;28;20186;-79
2023/09/18 02:08:37;;;;;;;6.50;6.07;;;17.40;99.90;;;;;;5089923;28;20171;-78
2023/09/18 02:11:05;;;;;;;7.07;6.47;;;17.40;99.90;;;;;;5076984;28;20276;-78
2023/09/18 02:13:31;;;;;;;7.10;6.57;;;17.40;99.90;;;;;;5074716;28;20218;-78
2023/09/18 02:15:56;;;;;;;6.33;5.83;;;17.40;99.90;;;;;;5092490;28;20163;-79
2023/09/18 02:18:22;;;;;;;6.90;6.30;;;17.40;99.90;;;;;;5085290;28;20537;-79
2023/09/18 02:20:49;;;;;;;6.67;6.07;;;17.40;99.90;;;;;;5077597;28;20539;-77
2023/09/18 02:23:18;;;;;;;6.87;6.17;;;17.40;99.90;;;;;;5080419;28;20176;-79
2023/09/18 02:25:44;;;;;;;7.13;6.53;;;17.40;99.90;;;;;;5098188;28;20178;-80
2023/09/18 02:28:10;;;;;;;6.73;6.13;;;17.40;99.90;;;;;;5082396;28;20181;-78
2023/09/18 02:30:36;;;;;;;6.90;6.20;;;17.40;99.90;;;;;;5059717;28;20264;-78
2023/09/18 02:33:04;;;;;;;6.70;6.10;;;17.30;99.90;;;;;;5077519;28;20176;-78
2023/09/18 02:35:30;;;;;;;5.77;5.33;;;17.30;99.90;;;;;;5077307;28;20276;-78
2023/09/18 02:37:56;;;;;;;6.03;5.60;;;17.30;99.90;;;;;;5077164;28;20162;-79
2023/09/18 02:40:22;;;;;;;7.00;5.87;;;17.20;99.90;;;;;;5077152;28;20249;-79
2023/09/18 02:42:49;;;;;;;6.23;5.60;;;17.20;99.90;;;;;;5078593;28;20256;-79
2023/09/18 02:45:14;;;;;;;7.40;6.63;;;17.10;99.90;;;;;;5077480;28;20195;-78
2023/09/18 02:47:41;;;;;;;6.13;5.73;;;17.10;99.90;;;;;;5076855;28;20658;-78
2023/09/18 02:50:07;;;;;;;6.73;6.17;;;17.10;99.90;;;;;;5076946;28;20282;-78
2023/09/18 02:52:33;;;;;;;6.83;6.17;;;17.10;99.90;;;;;;5076831;28;20639;-78
2023/09/18 02:54:59;;;;;;;6.43;5.93;;;17.10;99.90;;;;;;5077132;28;20202;-80
2023/09/18 02:57:25;;;;;;;6.37;5.77;;;17.20;99.90;;;;;;5076758;28;20577;-80
2023/09/18 02:59:50;;;;;;;7.10;6.47;;;17.20;99.90;;;;;;5077154;28;20585;-79
2023/09/18 03:02:16;;;;;;;6.40;5.87;;;17.10;99.90;;;;;;5077055;28;20626;-81
2023/09/18 03:04:42;;;;;;;6.13;5.73;;;17.20;99.90;;;;;;5076796;28;20271;-78
2023/09/18 03:07:08;;;;;;;7.03;5.67;;;17.10;99.90;;;;;;5076676;28;20194;-80
2023/09/18 03:09:35;;;;;;;6.53;6.03;;;17.10;99.90;;;;;;5074889;28;20260;-79
2023/09/18 03:12:01;;;;;;;6.33;5.77;;;17.10;99.90;;;;;;5076333;28;20589;-78
2023/09/18 03:14:26;;;;;;;6.40;6.00;;;17.10;99.90;;;;;;5076751;28;20262;-78
2023/09/18 03:16:52;;;;;;;6.53;5.93;;;17.00;99.90;;;;;;5075874;28;20232;-80
2023/09/18 03:19:18;;;;;;;6.17;5.67;;;17.00;99.90;;;;;;5080072;28;20173;-80
2023/09/18 03:21:44;;;;;;;6.97;6.37;;;17.00;99.90;;;;;;5082044;28;20234;-80
2023/09/18 03:24:09;;;;;;;7.13;6.43;;;16.90;99.90;;;;;;5077853;28;20194;-78
2023/09/18 03:26:35;;;;;;;6.67;6.07;;;16.90;99.90;;;;;;5072399;28;20244;-79
2023/09/18 03:29:01;;;;;;;7.10;6.60;;;16.80;99.90;;;;;;5092556;28;20182;-79
2023/09/18 03:31:27;;;;;;;6.67;6.17;;;16.70;99.90;;;;;;5094905;28;20297;-80
2023/09/18 03:33:53;;;;;;;7.17;6.57;;;16.70;99.90;;;;;;5094589;28;20182;-78
2023/09/18 03:36:22;;;;;;;6.80;6.27;;;16.70;99.90;;;;;;5076186;28;20650;-78
2023/09/18 03:38:48;;;;;;;7.43;6.27;;;16.70;99.90;;;;;;5076971;28;20171;-79
2023/09/18 03:41:14;;;;;;;7.10;6.50;;;16.60;99.90;;;;;;5071664;28;20190;-79
2023/09/18 03:43:40;;;;;;;7.20;6.70;;;16.60;99.90;;;;;;5086310;28;20178;-79
2023/09/18 03:46:06;;;;;;;8.10;7.30;;;16.60;99.90;;;;;;5063672;28;20695;-79
2023/09/18 03:48:37;;;;;;;7.27;6.63;;;16.50;99.90;;;;;;5082436;28;20183;-78
2023/09/18 03:51:05;;;;;;;7.93;7.23;;;16.50;99.90;;;;;;5057801;28;20752;-78
2023/09/18 03:53:33;;;;;;;7.27;6.73;;;16.50;99.90;;;;;;5077501;28;20159;-80
2023/09/18 03:55:59;;;;;;;7.33;6.73;;;16.50;99.90;;;;;;5062832;28;20587;-79
2023/09/18 03:58:25;;;;;;;7.10;6.50;;;16.40;99.90;;;;;;5075461;28;20178;-78
2023/09/18 04:00:51;;;;;;;7.40;6.80;;;16.40;99.90;;;;;;5075632;28;20180;-77
2023/09/18 04:03:17;;;;;;;7.20;6.60;;;16.40;99.90;;;;;;5075195;28;20180;-78
2023/09/18 04:05:43;;;;;;;7.60;6.80;;;16.40;99.90;;;;;;5075900;28;20179;-78
2023/09/18 04:08:09;;;;;;;7.17;6.57;;;16.40;99.90;;;;;;5074030;28;20194;-80
2023/09/18 04:10:34;;;;;;;7.80;7.20;;;16.40;99.90;;;;;;5075449;28;20201;-78
2023/09/18 04:13:00;;;;;;;7.33;6.70;;;16.40;99.90;;;;;;5075352;28;20523;-79
2023/09/18 04:15:27;;;;;;;6.80;6.30;;;16.40;99.90;;;;;;5075012;28;20176;-78
2023/09/18 04:17:53;;;;;;;7.57;6.87;;;16.40;99.90;;;;;;5075652;28;20578;-79
2023/09/18 04:20:19;;;;;;;7.77;6.57;;;16.40;99.90;;;;;;5075340;28;20238;-80
2023/09/18 04:22:49;;;;;;;7.03;6.43;;;16.40;99.90;;;;;;5057166;28;20183;-78
2023/09/18 04:25:16;;;;;;;6.47;6.00;;;16.30;99.90;;;;;;5074878;28;20517;-79
2023/09/18 04:27:42;;;;;;;6.33;5.90;;;16.30;99.90;;;;;;5077038;28;20253;-80
2023/09/18 04:30:11;;;;;;;7.43;6.73;;;16.30;99.90;;;;;;5059265;28;20233;-78
2023/09/18 04:32:37;;;;;;;6.90;6.20;;;16.30;99.90;;;;;;5078835;28;20773;-79
2023/09/18 04:35:05;;;;;;;8.33;6.57;;;16.30;99.90;;;;;;5061157;28;20268;-78
2023/09/18 04:37:31;;;;;;;8.83;7.10;;;16.30;99.90;;;;;;5075933;28;20166;-79
2023/09/18 04:39:58;;;;;;;7.83;6.60;;;16.20;99.90;;;;;;5075259;28;20194;-79
2023/09/18 04:42:23;;;;;;;7.00;6.40;;;16.30;99.90;;;;;;5075226;28;20172;-79
2023/09/18 04:44:49;;;;;;;6.77;6.17;;;16.20;99.90;;;;;;5076829;28;20173;-80
2023/09/18 04:47:15;;;;;;;6.37;5.83;;;16.30;99.90;;;;;;5083379;28;20229;-78
2023/09/18 04:49:41;;;;;;;6.67;6.07;;;17.60;99.90;;;;;;5092415;28;20210;-78
2023/09/18 04:52:06;;;;;;;7.50;6.90;;;16.40;99.90;;;;;;5082565;28;20629;-78
2023/09/18 04:54:32;;;;;;;6.90;6.20;;;16.40;99.90;;;;;;5075478;28;20270;-78
2023/09/18 04:56:58;;;;;;;7.57;6.63;;;16.40;99.90;;;;;;5074219;28;20169;-77
2023/09/18 04:59:24;;;;;;;7.33;6.67;;;16.40;99.90;;;;;;5080039;28;20199;-78
2023/09/18 05:01:49;;;;;;;7.43;6.73;;;16.40;99.90;;;;;;5083594;28;20666;-79
2023/09/18 05:04:16;;;;;;;7.23;6.63;;;16.50;99.90;;;;;;5083709;28;20277;-79
2023/09/18 05:06:41;;;;;;;8.30;6.63;;;16.50;99.90;;;;;;5091597;28;20217;-79
2023/09/18 05:09:07;;;;;;;7.23;6.40;;;16.50;99.90;;;;;;5075837;28;20243;-79
2023/09/18 05:11:34;;;;;;;6.57;6.07;;;16.40;99.90;;;;;;5098221;28;20210;-81
2023/09/18 05:13:59;;;;;;;7.00;6.30;;;16.40;99.90;;;;;;5098416;28;20166;-78
2023/09/18 05:16:25;;;;;;;7.03;6.53;;;16.40;99.90;;;;;;5079685;28;20190;-78
2023/09/18 05:18:51;;;;;;;7.20;6.60;;;16.40;99.90;;;;;;5096676;28;20256;-80
2023/09/18 05:21:22;;;;;;;7.00;6.40;;;16.40;99.90;;;;;;5092035;28;20195;-79
2023/09/18 05:23:48;;;;;;;6.83;6.13;;;16.40;99.90;;;;;;5092966;28;20170;-83
2023/09/18 05:26:13;;;;;;;6.83;6.20;;;16.50;99.90;;;;;;5079729;28;20198;-80
2023/09/18 05:28:39;;;;;;;6.70;6.10;;;16.60;99.90;;;;;;5097797;28;20231;-79
2023/09/18 05:31:05;;;;;;;7.40;6.67;;;16.60;99.90;;;;;;5081560;28;20198;-78
2023/09/18 05:33:30;;;;;;;8.47;6.47;;;16.60;99.90;;;;;;5095451;28;20630;-78
2023/09/18 05:35:56;;;;;;;6.80;6.30;;;16.70;99.90;;;;;;5096695;28;20214;-79
2023/09/18 05:38:22;;;;;;;7.67;6.80;;;16.70;99.90;;;;;;5096568;28;20153;-79
2023/09/18 05:40:48;;;;;;;7.17;6.60;;;16.70;99.90;;;;;;5096169;28;20202;-79
2023/09/18 05:43:14;;;;;;;7.27;6.57;;;16.80;99.90;;;;;;5094958;28;20179;-79
2023/09/18 05:45:40;;;;;;;7.10;6.50;;;16.80;99.90;;;;;;5075206;28;20189;-80
2023/09/18 05:48:07;;;;;;;7.70;7.00;;;16.80;99.90;;;;;;5085206;28;20198;-79
2023/09/18 05:50:35;;;;;;;11.63;7.37;;;16.90;99.90;;;;;;5083222;28;20210;-80
2023/09/18 05:53:03;;;;;;;8.97;7.50;;;16.90;99.90;;;;;;5081658;28;20202;-80
2023/09/18 05:55:33;;;;;;;7.33;6.63;;;17.00;99.90;;;;;;5080567;28;20167;-79
2023/09/18 05:58:00;;;;;;;7.60;6.90;;;17.00;99.90;;;;;;5081478;28;20171;-80
2023/09/18 06:00:26;;;;;;;7.17;6.47;;;17.10;99.90;;;;;;5081477;28;20170;-80
2023/09/18 06:02:52;;;;;;;7.87;7.17;;;17.10;99.90;;;;;;5081055;28;20179;-81
2023/09/18 06:05:21;;;;;;;7.70;7.00;;;17.20;99.90;;;;;;5087355;28;20629;-79
2023/09/18 06:07:48;;;;;;;8.23;7.17;;;17.30;99.90;;;;;;5082341;28;20169;-80
2023/09/18 06:10:14;;;;;;;7.33;6.63;;;17.30;99.90;;;;;;5081010;28;20278;-79
2023/09/18 06:12:40;;;;;;;6.93;6.17;;;17.40;99.90;;;;;;5081314;28;20202;-79
2023/09/18 06:15:09;;;;;;;6.40;5.83;;;17.50;99.90;;;;;;5080329;28;20566;-79
2023/09/18 06:17:39;;;;;;;7.50;6.90;;;17.50;99.90;;;;;;5080216;28;20525;-80
2023/09/18 06:20:15;;;;;;;6.93;6.33;;;17.60;99.90;;;;;;5079789;28;20178;-80
2023/09/18 06:22:41;;;;;;;6.87;6.30;;;17.70;99.90;;;;;;5061587;28;20171;-81
2023/09/18 06:25:09;;;;;;;6.60;6.00;;;17.80;99.90;;;;;;5080235;28;20253;-80
2023/09/18 06:27:36;;;;;;;6.90;6.30;;;17.80;99.90;;;;;;5081052;28;20254;-79
2023/09/18 06:30:03;;;;;;;7.50;6.80;;;18.00;99.90;;;;;;5077668;28;20261;-80
2023/09/18 06:32:29;;;;;;;9.40;6.83;;;18.00;99.90;;;;;;5077420;28;20531;-79
2023/09/18 06:34:57;;;;;;;7.70;6.90;;;18.10;99.90;;;;;;5077832;28;20755;-79
2023/09/18 06:37:23;;;;;;;6.83;6.33;;;18.20;99.90;;;;;;5085307;28;20148;-81
2023/09/18 06:39:49;;;;;;;7.20;6.03;;;18.20;99.90;;;;;;5082959;28;20202;-81
2023/09/18 06:42:15;;;;;;;6.57;6.07;;;18.20;99.90;;;;;;5081408;28;20179;-79
2023/09/18 06:44:41;;;;;;;8.77;5.93;;;18.30;99.90;;;;;;5077820;28;20190;-78
2023/09/18 06:47:07;;;;;;;7.50;6.80;;;18.30;99.90;;;;;;5059666;28;20176;-78
2023/09/18 06:49:32;;;;;;;6.37;5.87;;;18.30;99.90;;;;;;5077173;28;20175;-80
2023/09/18 06:51:59;;;;;;;7.07;6.37;;;18.50;99.90;;;;;;5076875;28;20171;-80
2023/09/18 06:54:24;;;;;;;6.80;6.00;;;18.50;99.90;;;;;;5076873;28;20184;-83
2023/09/18 06:56:50;;;;;;;6.37;5.83;;;18.70;99.90;;;;;;5096030;28;20179;-79
2023/09/18 06:59:16;;;;;;;6.43;5.83;;;18.80;99.90;;;;;;5077930;28;20599;-79
2023/09/18 07:01:42;;;;;;;6.60;6.00;;;18.90;99.90;;;;;;5076812;28;20221;-81
2023/09/18 07:04:08;;;;;;;6.80;6.30;;;19.00;99.90;;;;;;5077917;28;20244;-79
2023/09/18 07:06:34;;;;;;;6.70;6.10;;;19.00;99.90;;;;;;5083333;28;20183;-80
2023/09/18 07:09:00;;;;;;;6.20;5.70;;;19.10;99.90;;;;;;5073721;28;20550;-80
2023/09/18 07:11:26;;;;;;;6.50;6.00;;;19.20;99.90;;;;;;5077459;28;20720;-79
2023/09/18 07:13:52;;;;;;;6.17;5.70;;;19.30;99.90;;;;;;5088935;28;20175;-79
2023/09/18 07:16:17;;;;;;;5.53;5.13;;;19.40;99.90;;;;;;5092264;28;20186;-82
2023/09/18 07:18:43;;;;;;;6.07;5.43;;;19.40;99.90;;;;;;5087686;28;20174;-81
2023/09/18 07:21:10;;;;;;;7.10;6.40;;;19.40;99.90;;;;;;5077785;28;20178;-78
2023/09/18 07:23:37;;;;;;;6.23;5.73;;;19.50;99.90;;;;;;5058920;28;20197;-79
2023/09/18 07:26:03;;;;;;;6.73;6.13;;;19.60;99.90;;;;;;5059026;28;20548;-80
2023/09/18 07:28:29;;;;;;;8.00;7.27;;;19.60;99.90;;;;;;5077177;28;20171;-80
2023/09/18 07:30:54;;;;;;;7.53;6.87;;;19.70;99.90;;;;;;5077257;28;20700;-80
2023/09/18 07:33:20;;;;;;;6.77;6.17;;;19.80;99.90;;;;;;5076269;28;20168;-80
2023/09/18 07:35:53;;;;;;;6.30;5.80;;;19.90;99.90;;;;;;5076494;28;20222;-79
2023/09/18 07:38:19;;;;;;;6.53;5.87;;;19.90;99.90;;;;;;5077152;28;20171;-79
2023/09/18 07:40:47;;;;;;;6.50;6.00;;;19.90;99.90;;;;;;5077501;28;20174;-79
2023/09/18 07:43:13;;;;;;;6.77;6.07;;;19.80;99.90;;;;;;5086024;28;20178;-80
2023/09/18 07:45:39;;;;;;;6.20;5.70;;;19.90;99.90;;;;;;5081665;28;20186;-79
2023/09/18 07:48:07;;;;;;;6.63;6.13;;;19.90;99.90;;;;;;5076710;28;20167;-80
2023/09/18 07:50:33;;;;;;;6.43;5.93;;;20.10;99.90;;;;;;5061171;28;20210;-80
2023/09/18 07:52:59;;;;;;;6.07;5.57;;;20.10;99.90;;;;;;5062945;28;20179;-79
2023/09/18 07:55:26;;;;;;;6.63;6.13;;;20.10;99.90;;;;;;5077465;28;20167;-79
2023/09/18 07:57:53;;;;;;;9.83;5.80;;;20.10;99.90;;;;;;5076101;28;20167;-80
2023/09/18 08:00:22;;;;;;;6.97;6.40;;;20.30;99.90;;;;;;5057798;28;20237;-82
2023/09/18 08:02:49;;;;;;;6.33;5.87;;;20.30;99.90;;;;;;5076214;28;20214;-80
2023/09/18 08:05:17;;;;;;;6.30;5.60;;;20.30;99.90;;;;;;5075999;28;20627;-79
2023/09/18 08:07:42;;;;;;;6.80;6.10;;;20.50;99.90;;;;;;5058392;28;20186;-79
2023/09/18 08:10:09;;;;;;;6.37;5.97;;;20.60;99.90;;;;;;5058120;28;20272;-80
2023/09/18 08:12:35;;;;;;;6.33;5.73;;;20.80;99.90;;;;;;5075739;28;20168;-82
2023/09/18 08:15:02;;;;;;;7.90;5.77;;;20.80;99.90;;;;;;5075919;28;20558;-78
2023/09/18 08:17:28;;;;;;;8.10;7.27;;;20.90;99.90;;;;;;5064672;28;20179;-79
2023/09/18 08:19:54;;;;;;;9.53;6.47;;;20.80;99.90;;;;;;5085028;28;20167;-78
2023/09/18 08:22:21;;;;;;;9.30;7.17;;;20.90;99.90;;;;;;5076230;28;20171;-79
2023/09/18 08:24:48;;;;;;;6.83;6.33;;;21.10;99.90;;;;;;5076577;28;20250;-79
2023/09/18 08:27:16;;;;;;;6.67;5.97;;;21.20;99.90;;;;;;5057903;28;20233;-80
2023/09/18 08:29:43;;;;;;;7.00;6.50;;;21.40;99.90;;;;;;5057850;28;20282;-80
2023/09/18 08:32:09;;;;;;;7.30;6.53;;;21.50;99.90;;;;;;5077466;28;20199;-81
2023/09/18 08:34:35;;;;;;;6.83;6.33;;;21.50;99.90;;;;;;5091072;28;20650;-80
2023/09/18 08:37:02;;;;;;;7.00;6.40;;;21.60;99.90;;;;;;5075842;28;20175;-79
2023/09/18 08:39:28;;;;;;;7.03;6.43;;;21.70;99.90;;;;;;5075639;28;20250;-79
2023/09/18 08:41:59;;;;;;;7.63;6.67;;;21.70;99.90;;;;;;5075468;28;20271;-79
2023/09/18 08:44:27;;;;;;;7.30;6.70;;;21.70;99.90;;;;;;5080055;28;20164;-81
2023/09/18 08:46:54;;;;;;;7.03;6.53;;;21.60;99.90;;;;;;5088108;28;20168;-79
2023/09/18 08:49:23;;;;;;;7.73;7.10;;;21.50;99.90;;;;;;5078170;28;20190;-79
2023/09/18 08:51:51;;;;;;;7.07;6.47;;;21.50;99.90;;;;;;5057286;28;20202;-79
2023/09/18 08:54:17;;;;;;;7.90;7.10;;;21.50;99.90;;;;;;5075375;28;20232;-80
2023/09/18 08:56:43;;;;;;;7.33;6.73;;;21.50;99.90;;;;;;5074871;28;20178;-79
2023/09/18 08:59:09;;;;;;;7.37;6.77;;;21.50;99.90;;;;;;5075006;28;20171;-78
2023/09/18 09:01:34;;;;;;;8.47;7.43;;;21.50;99.90;;;;;;5074487;28;20512;-79
2023/09/18 09:04:00;;;;;;;9.40;7.77;;;21.50;99.90;;;;;;5074306;28;20183;-79
2023/09/18 09:06:26;;;;;;;8.93;7.83;;;21.60;99.90;;;;;;5074883;28;20530;-79
2023/09/18 09:08:52;;;;;;;8.20;7.50;;;21.50;99.90;;;;;;5075251;28;20194;-80
2023/09/18 09:11:19;;;;;;;7.70;7.00;;;21.50;99.90;;;;;;5075812;28;20237;-79
2023/09/18 09:13:45;;;;;;;7.67;6.83;;;21.60;99.90;;;;;;5066238;28;20187;-80
2023/09/18 09:16:12;;;;;;;7.60;7.00;;;21.60;99.90;;;;;;5085473;28;20175;-79
2023/09/18 09:18:49;;;;;;;7.20;6.60;;;21.60;99.90;;;;;;5080546;28;20167;-78
2023/09/18 09:21:16;;;;;;;7.30;6.70;;;21.70;99.90;;;;;;5075070;28;20625;-79
2023/09/18 09:23:53;;;;;;;7.40;6.80;;;21.70;99.90;;;;;;5075456;28;20171;-79
2023/09/18 09:26:22;;;;;;;7.70;7.10;;;21.70;99.90;;;;;;5072706;28;20581;-79
2023/09/18 09:28:48;;;;;;;7.63;7.03;;;21.70;99.90;;;;;;5074740;28;20171;-80
2023/09/18 09:31:27;;;;;;;7.30;6.60;;;21.70;99.90;;;;;;5075646;28;20612;-80
2023/09/18 09:33:53;;;;;;;6.83;6.23;;;21.80;99.90;;;;;;5059933;28;20197;-79
2023/09/18 09:36:22;;;;;;;6.73;6.20;;;21.90;99.90;;;;;;5081372;28;20607;-81
2023/09/18 09:38:49;;;;;;;9.93;5.93;;;22.10;99.90;;;;;;5070036;28;20174;-80
2023/09/18 09:41:15;;;;;;;8.43;5.67;;;22.30;99.90;;;;;;5086337;28;20236;-79
2023/09/18 09:43:43;;;;;;;6.50;6.00;;;22.40;99.90;;;;;;5074833;28;20167;-80
2023/09/18 09:46:21;;;;;;;6.77;6.00;;;22.50;99.90;;;;;;5074721;28;20203;-80
2023/09/18 09:49:04;;;;;;;7.35;5.32;;;22.50;99.90;;;;;;5076393;28;20151;-79
2023/09/18 09:51:31;;;;;;;6.40;5.80;;;22.60;99.90;;;;;;5079066;28;20199;-79
2023/09/18 09:54:01;;;;;;;6.07;5.63;;;22.70;99.90;;;;;;5078923;28;20529;-80
2023/09/18 09:56:44;;;;;;;6.50;5.90;;;22.80;99.90;;;;;;5065147;28;20191;-80
2023/09/18 09:59:11;;;;;;;5.82;5.32;;;22.90;99.90;;;;;;5058412;28;20186;-80
2023/09/18 10:01:38;;;;;;;6.18;5.60;;;23.00;99.90;;;;;;5073426;28;20646;-79
2023/09/18 10:04:08;;;;;;;6.72;6.22;;;23.10;99.90;;;;;;5055823;28;20265;-78
2023/09/18 10:06:36;;;;;;;6.05;5.55;;;23.20;99.90;;;;;;5074407;28;20164;-79
2023/09/18 10:09:07;;;;;;;6.35;5.95;;;23.30;99.90;;;;;;5074216;28;20167;-81
2023/09/18 10:11:37;;;;;;;5.97;5.43;;;23.30;99.90;;;;;;5092904;28;20187;-81
2023/09/18 10:14:31;;;;;;;6.80;6.07;;;23.40;99.90;;;;;;5075240;28;20179;-79
2023/09/18 10:16:58;;;;;;;5.75;5.35;;;23.40;99.90;;;;;;5056938;28;20163;-79
2023/09/18 10:19:51;;;;;;;6.00;5.55;;;23.30;99.90;;;;;;5056682;28;20270;-81
2023/09/18 10:22:38;;;;;;;5.95;5.55;;;23.10;99.90;;;;;;5078509;28;20147;-80
2023/09/18 10:25:18;;;;;;;5.93;5.40;;;22.90;99.90;;;;;;5081982;28;20273;-79
2023/09/18 10:27:49;;;;;;;6.53;5.95;;;22.90;99.90;;;;;;5076225;28;20362;-79
2023/09/18 10:30:18;;;;;;;6.32;5.82;;;22.90;99.90;;;;;;5074844;28;20195;-79
2023/09/18 10:32:48;;;;;;;5.63;5.22;;;23.00;99.90;;;;;;5074072;28;20175;-80
2023/09/18 10:35:15;;;;;;;5.65;5.25;;;23.10;99.90;;;;;;5056526;28;20227;-79
2023/09/18 10:37:45;;;;;;;5.90;5.47;;;23.20;99.90;;;;;;5077087;28;20245;-79
2023/09/18 10:40:11;;;;;;;6.10;5.68;;;23.50;99.90;;;;;;5077691;28;20163;-81
2023/09/18 10:42:41;;;;;;;5.13;4.82;;;23.50;99.90;;;;;;5078204;28;20195;-80
2023/09/18 10:45:10;;;;;;;5.38;4.97;;;23.50;99.90;;;;;;5059916;28;20586;-79
2023/09/18 10:47:41;;;;;;;5.22;4.70;;;23.60;99.90;;;;;;5077812;28;20171;-79
2023/09/18 10:50:09;;;;;;;5.95;5.38;;;23.70;99.90;;;;;;5077276;28;20207;-80
2023/09/18 10:52:36;;;;;;;5.68;5.28;;;23.80;99.90;;;;;;5059262;28;20584;-80
2023/09/18 10:55:05;;;;;;;5.53;5.07;;;23.80;99.90;;;;;;5077779;28;20190;-79
2023/09/18 10:57:38;;;;;;;5.47;5.13;;;23.80;99.90;;;;;;5078050;28;20635;-79
2023/09/18 11:00:13;;;;;;;5.82;5.32;;;23.90;99.90;;;;;;5077823;28;20315;-79
2023/09/18 11:02:42;;;;;;;5.53;4.97;;;24.00;99.90;;;;;;5077620;28;20197;-78
2023/09/18 11:05:08;;;;;;;5.45;5.10;;;24.00;99.90;;;;;;5077652;28;20171;-79
2023/09/18 11:07:34;;;;;;;5.13;4.82;;;24.00;99.90;;;;;;5083170;28;20718;-79
2023/09/18 11:10:19;;;;;;;5.50;5.10;;;23.70;99.90;;;;;;5088849;28;20213;-79
2023/09/18 11:12:45;;;;;;;5.43;5.03;;;23.70;99.90;;;;;;5077606;28;20175;-79
2023/09/18 11:15:30;;;;;;;5.47;5.07;;;23.80;99.90;;;;;;5077518;28;20170;-78
2023/09/18 11:18:05;;;;;;;6.13;5.65;;;23.90;99.90;;;;;;5058857;28;20634;-80
2023/09/18 11:20:31;;;;;;;5.80;5.22;;;23.90;99.90;;;;;;5059796;28;20171;-80
2023/09/18 11:23:12;;;;;;;5.40;5.10;;;23.90;99.90;;;;;;5078781;28;20171;-79
2023/09/18 11:25:42;;;;;;;5.68;5.25;;;23.90;99.90;;;;;;5060751;28;20273;-79
2023/09/18 11:28:14;;;;;;;5.38;5.07;;;23.90;99.90;;;;;;5060524;28;20183;-79
2023/09/18 11:30:57;;;;;;;5.38;5.00;;;24.00;99.90;;;;;;5085938;28;20258;-81
2023/09/18 11:33:39;;;;;;;5.88;5.45;;;24.10;99.90;;;;;;5079514;28;20155;-80
2023/09/18 11:36:32;;;;;;;5.32;4.95;;;24.30;99.90;;;;;;5084520;28;20231;-79
2023/09/18 11:39:09;;;;;;;5.97;5.57;;;24.40;99.90;;;;;;5058695;28;20182;-81
2023/09/18 11:41:39;;;;;;;6.47;5.97;;;24.50;99.90;;;;;;5058756;28;20186;-80
2023/09/18 11:44:13;;;;;;;6.40;5.90;;;24.60;99.90;;;;;;5059028;28;20799;-80
2023/09/18 11:46:40;;;;;;;5.97;5.40;;;24.70;99.90;;;;;;5091636;28;20177;-80
2023/09/18 11:49:12;;;;;;;4.85;4.45;;;24.80;99.90;;;;;;5079533;28;20179;-80
2023/09/18 11:51:38;;;;;;;5.70;5.35;;;24.80;99.90;;;;;;5080705;28;20207;-79
2023/09/18 11:54:07;;;;;;;6.25;5.85;;;24.90;99.90;;;;;;5081104;28;20188;-81
2023/09/18 11:56:33;;;;;;;6.13;5.53;;;24.90;99.90;;;;;;5079961;28;20171;-81
2023/09/18 11:59:01;;;;;;;5.55;5.05;;;25.00;99.90;;;;;;5079311;28;20164;-81
2023/09/18 12:01:28;;;;;;;6.03;5.53;;;25.00;99.90;;;;;;5096478;28;20176;-80
2023/09/18 12:03:55;;;;;;;5.78;5.32;;;24.80;99.90;;;;;;5068068;28;20186;-80
2023/09/18 12:06:21;;;;;;;5.55;5.15;;;24.70;99.90;;;;;;5094298;28;20171;-79
2023/09/18 12:08:51;;;;;;;5.82;5.43;;;24.60;99.90;;;;;;5075349;28;20194;-81
2023/09/18 12:11:19;;;;;;;5.60;5.20;;;24.60;99.90;;;;;;5075411;28;20203;-78
2023/09/18 12:13:46;;;;;;;5.35;5.03;;;24.50;99.90;;;;;;5076162;28;20163;-78
2023/09/18 12:16:12;;;;;;;7.18;5.75;;;24.40;99.90;;;;;;5075592;28;20254;-79
2023/09/18 12:18:47;;;;;;;6.25;5.75;;;24.20;99.90;;;;;;5075421;28;20665;-79
2023/09/18 12:21:15;;;;;;;5.40;5.05;;;24.20;99.90;;;;;;5057937;28;20313;-81
2023/09/18 12:23:45;;;;;;;7.40;5.85;;;24.10;99.90;;;;;;5075706;28;20176;-80
2023/09/18 12:26:15;;;;;;;6.30;5.70;;;24.20;99.90;;;;;;5057526;28;20171;-81
2023/09/18 12:28:42;;;;;;;5.93;5.32;;;24.10;99.90;;;;;;5075517;28;20170;-79
2023/09/18 12:31:15;;;;;;;5.53;5.13;;;24.20;99.90;;;;;;5075546;28;20199;-79
2023/09/18 12:33:47;;;;;;;7.22;5.45;;;24.20;99.90;;;;;;5075365;28;20175;-82
2023/09/18 12:36:18;;;;;;;5.75;5.25;;;24.30;99.90;;;;;;5075649;28;20743;-79
2023/09/18 12:39:00;;;;;;;5.82;5.28;;;24.40;99.90;;;;;;5075336;28;20647;-79
2023/09/18 12:41:26;;;;;;;5.95;5.45;;;24.40;99.90;;;;;;5075804;28;20342;-78
2023/09/18 12:43:54;;;;;;;6.68;4.97;;;24.50;99.90;;;;;;5057662;28;20179;-79
2023/09/18 12:46:21;;;;;;;5.53;5.13;;;24.50;99.90;;;;;;5075886;28;20167;-79
2023/09/18 12:48:48;;;;;;;5.65;5.25;;;24.50;99.90;;;;;;5075482;28;20242;-79
2023/09/18 12:51:14;;;;;;;6.10;4.97;;;24.50;99.90;;;;;;5075471;28;20207;-80